sensor_id;sensor_type;location;lat;lon;timestamp;pressure;altitude;pressure_sealevel;temperature
18474;BMP180;30265;52.408;13.500;2022-08-19T00:05:21;100731.00;;;22.10
18474;BMP180;30265;52.408;13.500;2022-08-19T00:15:44;100725.00;;;22.00
18474;BMP180;30265;52.408;13.500;2022-08-19T00:26:07;100713.00;;;21.60
18474;BMP180;30265;52.408;13.500;2022-08-19T00:36:30;100694.00;;;21.30
18474;BMP180;30265;52.408;13.500;2022-08-19T00:46:54;100702.00;;;21.20
18474;BMP180;30265;52.408;13.500;2022-08-19T00:57:24;100715.00;;;21.10
18474;BMP180;30265;52.408;13.500;2022-08-19T01:07:48;100703.00;;;20.80
18474;BMP180;30265;52.408;13.500;2022-08-19T01:18:14;100723.00;;;20.50
18474;BMP180;30265;52.408;13.500;2022-08-19T01:28:38;100662.00;;;20.10
18474;BMP180;30265;52.408;13.500;2022-08-19T01:39:04;244657.00;;;232.30
18474;BMP180;30265;52.408;13.500;2022-08-19T01:49:27;244657.00;;;20.10
18474;BMP180;30265;52.408;13.500;2022-08-19T01:59:49;244657.00;;;232.30
18474;BMP180;30265;52.408;13.500;2022-08-19T02:10:16;244657.00;;;232.30
18474;BMP180;30265;52.408;13.500;2022-08-19T02:20:38;244657.00;;;232.30
18474;BMP180;30265;52.408;13.500;2022-08-19T02:31:02;244657.00;;;232.30
18474;BMP180;30265;52.408;13.500;2022-08-19T02:41:25;244657.00;;;232.30
18474;BMP180;30265;52.408;13.500;2022-08-19T02:51:49;244657.00;;;232.30
18474;BMP180;30265;52.408;13.500;2022-08-19T03:02:10;244657.00;;;232.30
18474;BMP180;30265;52.408;13.500;2022-08-19T03:12:35;244657.00;;;232.30
18474;BMP180;30265;52.408;13.500;2022-08-19T03:22:57;244657.00;;;232.30
18474;BMP180;30265;52.408;13.500;2022-08-19T03:33:20;244657.00;;;232.30
18474;BMP180;30265;52.408;13.500;2022-08-19T03:43:48;244657.00;;;232.30
18474;BMP180;30265;52.408;13.500;2022-08-19T03:54:15;244657.00;;;232.30
18474;BMP180;30265;52.408;13.500;2022-08-19T04:04:45;244657.00;;;232.30
18474;BMP180;30265;52.408;13.500;2022-08-19T04:15:09;244657.00;;;232.30
18474;BMP180;30265;52.408;13.500;2022-08-19T04:25:35;244657.00;;;232.30
18474;BMP180;30265;52.408;13.500;2022-08-19T04:35:58;244657.00;;;232.30
18474;BMP180;30265;52.408;13.500;2022-08-19T04:46:20;244657.00;;;232.30
18474;BMP180;30265;52.408;13.500;2022-08-19T04:57:03;244657.00;;;232.30
18474;BMP180;30265;52.408;13.500;2022-08-19T05:07:27;244657.00;;;232.30
18474;BMP180;30265;52.408;13.500;2022-08-19T05:17:52;244657.00;;;232.30
18474;BMP180;30265;52.408;13.500;2022-08-19T05:28:37;244657.00;;;232.30
18474;BMP180;30265;52.408;13.500;2022-08-19T05:39:01;244657.00;;;232.30
18474;BMP180;30265;52.408;13.500;2022-08-19T05:49:23;244657.00;;;232.30
18474;BMP180;30265;52.408;13.500;2022-08-19T05:59:46;100120.00;;;21.90
18474;BMP180;30265;52.408;13.500;2022-08-19T06:10:12;100618.00;;;21.90
18474;BMP180;30265;52.408;13.500;2022-08-19T06:20:35;100620.00;;;22.10
18474;BMP180;30265;52.408;13.500;2022-08-19T06:31:16;100609.00;;;22.40
18474;BMP180;30265;52.408;13.500;2022-08-19T06:41:41;100630.00;;;22.10
18474;BMP180;30265;52.408;13.500;2022-08-19T06:52:12;100637.00;;;22.10
18474;BMP180;30265;52.408;13.500;2022-08-19T07:02:35;100670.00;;;22.20
18474;BMP180;30265;52.408;13.500;2022-08-19T07:12:57;100647.00;;;22.30
18474;BMP180;30265;52.408;13.500;2022-08-19T07:23:20;100658.00;;;22.70
18474;BMP180;30265;52.408;13.500;2022-08-19T07:33:43;100689.00;;;22.80
18474;BMP180;30265;52.408;13.500;2022-08-19T07:44:09;100687.00;;;23.10
18474;BMP180;30265;52.408;13.500;2022-08-19T07:54:34;100697.00;;;23.30
18474;BMP180;30265;52.408;13.500;2022-08-19T08:04:58;244657.00;;;232.30
18474;BMP180;30265;52.408;13.500;2022-08-19T08:15:41;244657.00;;;232.30
18474;BMP180;30265;52.408;13.500;2022-08-19T08:26:06;244657.00;;;232.30
18474;BMP180;30265;52.408;13.500;2022-08-19T08:36:27;244657.00;;;232.30
18474;BMP180;30265;52.408;13.500;2022-08-19T08:46:53;100729.00;;;24.10
18474;BMP180;30265;52.408;13.500;2022-08-19T08:57:21;100723.00;;;24.20
18474;BMP180;30265;52.408;13.500;2022-08-19T09:07:51;100726.00;;;24.40
18474;BMP180;30265;52.408;13.500;2022-08-19T09:18:16;100734.00;;;24.60
18474;BMP180;30265;52.408;13.500;2022-08-19T09:28:40;100718.00;;;24.80
18474;BMP180;30265;52.408;13.500;2022-08-19T09:39:08;100720.00;;;24.40
18474;BMP180;30265;52.408;13.500;2022-08-19T09:49:38;100719.00;;;24.20
18474;BMP180;30265;52.408;13.500;2022-08-19T10:00:00;100699.00;;;24.50
18474;BMP180;30265;52.408;13.500;2022-08-19T10:10:28;100701.00;;;24.60
18474;BMP180;30265;52.408;13.500;2022-08-19T10:21:04;100709.00;;;24.90
18474;BMP180;30265;52.408;13.500;2022-08-19T10:31:33;100711.00;;;24.70
18474;BMP180;30265;52.408;13.500;2022-08-19T10:42:15;100715.00;;;23.80
18474;BMP180;30265;52.408;13.500;2022-08-19T10:52:40;100711.00;;;23.50
18474;BMP180;30265;52.408;13.500;2022-08-19T11:03:09;100725.00;;;24.40
18474;BMP180;30265;52.408;13.500;2022-08-19T11:13:35;100730.00;;;24.10
18474;BMP180;30265;52.408;13.500;2022-08-19T11:23:59;100741.00;;;23.90
18474;BMP180;30265;52.408;13.500;2022-08-19T11:34:25;100745.00;;;23.50
18474;BMP180;30265;52.408;13.500;2022-08-19T11:44:47;100748.00;;;23.80
18474;BMP180;30265;52.408;13.500;2022-08-19T11:55:11;100760.00;;;24.00
18474;BMP180;30265;52.408;13.500;2022-08-19T12:05:32;100776.00;;;24.30
18474;BMP180;30265;52.408;13.500;2022-08-19T12:15:56;100771.00;;;24.20
18474;BMP180;30265;52.408;13.500;2022-08-19T12:26:18;100775.00;;;25.10
18474;BMP180;30265;52.408;13.500;2022-08-19T12:36:41;100776.00;;;24.80
18474;BMP180;30265;52.408;13.500;2022-08-19T12:47:03;100769.00;;;24.20
18474;BMP180;30265;52.408;13.500;2022-08-19T12:57:29;100783.00;;;24.60
18474;BMP180;30265;52.408;13.500;2022-08-19T13:07:55;100798.00;;;24.10
18474;BMP180;30265;52.408;13.500;2022-08-19T13:18:18;100794.00;;;24.40
18474;BMP180;30265;52.408;13.500;2022-08-19T13:28:40;100789.00;;;25.00
18474;BMP180;30265;52.408;13.500;2022-08-19T13:39:21;100787.00;;;24.50
18474;BMP180;30265;52.408;13.500;2022-08-19T13:49:44;100796.00;;;24.20
18474;BMP180;30265;52.408;13.500;2022-08-19T14:00:10;100784.00;;;24.90
18474;BMP180;30265;52.408;13.500;2022-08-19T14:10:32;100772.00;;;24.70
18474;BMP180;30265;52.408;13.500;2022-08-19T14:20:55;100785.00;;;24.60
18474;BMP180;30265;52.408;13.500;2022-08-19T14:31:18;100781.00;;;24.40
18474;BMP180;30265;52.408;13.500;2022-08-19T14:41:42;100780.00;;;24.50
18474;BMP180;30265;52.408;13.500;2022-08-19T14:52:05;100791.00;;;24.40
18474;BMP180;30265;52.408;13.500;2022-08-19T15:02:29;100801.00;;;24.30
18474;BMP180;30265;52.408;13.500;2022-08-19T15:12:54;100818.00;;;24.50
18474;BMP180;30265;52.408;13.500;2022-08-19T15:23:19;100838.00;;;24.10
18474;BMP180;30265;52.408;13.500;2022-08-19T15:33:40;100855.00;;;24.00
18474;BMP180;30265;52.408;13.500;2022-08-19T15:44:08;100836.00;;;23.40
18474;BMP180;30265;52.408;13.500;2022-08-19T15:54:30;100832.00;;;23.40
18474;BMP180;30265;52.408;13.500;2022-08-19T16:04:53;100832.00;;;23.20
18474;BMP180;30265;52.408;13.500;2022-08-19T16:15:41;100818.00;;;22.90
18474;BMP180;30265;52.408;13.500;2022-08-19T16:26:05;100833.00;;;23.00
18474;BMP180;30265;52.408;13.500;2022-08-19T16:36:28;100832.00;;;23.00
18474;BMP180;30265;52.408;13.500;2022-08-19T16:46:53;100828.00;;;23.10
18474;BMP180;30265;52.408;13.500;2022-08-19T16:57:18;100835.00;;;23.00
18474;BMP180;30265;52.408;13.500;2022-08-19T17:07:41;100845.00;;;23.10
18474;BMP180;30265;52.408;13.500;2022-08-19T17:18:05;100849.00;;;22.90
18474;BMP180;30265;52.408;13.500;2022-08-19T17:28:28;100848.00;;;22.80
18474;BMP180;30265;52.408;13.500;2022-08-19T17:38:51;100864.00;;;22.60
18474;BMP180;30265;52.408;13.500;2022-08-19T17:49:16;100858.00;;;22.30
18474;BMP180;30265;52.408;13.500;2022-08-19T17:59:39;100888.00;;;22.30
18474;BMP180;30265;52.408;13.500;2022-08-19T18:10:02;100884.00;;;22.20
18474;BMP180;30265;52.408;13.500;2022-08-19T18:20:23;100876.00;;;22.10
18474;BMP180;30265;52.408;13.500;2022-08-19T18:30:47;100900.00;;;22.20
18474;BMP180;30265;52.408;13.500;2022-08-19T18:41:08;100917.00;;;22.10
18474;BMP180;30265;52.408;13.500;2022-08-19T18:51:49;100924.00;;;22.10
18474;BMP180;30265;52.408;13.500;2022-08-19T19:02:12;100934.00;;;22.10
18474;BMP180;30265;52.408;13.500;2022-08-19T19:12:39;100959.00;;;22.10
18474;BMP180;30265;52.408;13.500;2022-08-19T19:23:01;100961.00;;;22.00
18474;BMP180;30265;52.408;13.500;2022-08-19T19:33:26;100968.00;;;22.00
18474;BMP180;30265;52.408;13.500;2022-08-19T19:43:47;100993.00;;;21.80
18474;BMP180;30265;52.408;13.500;2022-08-19T19:54:31;100986.00;;;21.80
18474;BMP180;30265;52.408;13.500;2022-08-19T20:04:52;100984.00;;;21.70
18474;BMP180;30265;52.408;13.500;2022-08-19T20:15:21;100997.00;;;21.70
18474;BMP180;30265;52.408;13.500;2022-08-19T20:26:09;100987.00;;;21.70
18474;BMP180;30265;52.408;13.500;2022-08-19T20:37:08;100973.00;;;21.70
18474;BMP180;30265;52.408;13.500;2022-08-19T20:47:36;100954.00;;;21.80
18474;BMP180;30265;52.408;13.500;2022-08-19T20:58:08;100944.00;;;21.90
18474;BMP180;30265;52.408;13.500;2022-08-19T21:08:41;100967.00;;;21.90
18474;BMP180;30265;52.408;13.500;2022-08-19T21:19:23;100965.00;;;21.90
18474;BMP180;30265;52.408;13.500;2022-08-19T21:29:56;100982.00;;;21.90
18474;BMP180;30265;52.408;13.500;2022-08-19T21:40:28;100977.00;;;21.90
18474;BMP180;30265;52.408;13.500;2022-08-19T21:50:50;100980.00;;;21.90
18474;BMP180;30265;52.408;13.500;2022-08-19T22:01:12;100985.00;;;21.80
18474;BMP180;30265;52.408;13.500;2022-08-19T22:11:34;100979.00;;;21.40
18474;BMP180;30265;52.408;13.500;2022-08-19T22:21:59;100966.00;;;21.20
18474;BMP180;30265;52.408;13.500;2022-08-19T22:32:21;100981.00;;;21.00
18474;BMP180;30265;52.408;13.500;2022-08-19T22:42:56;100968.00;;;20.90
18474;BMP180;30265;52.408;13.500;2022-08-19T22:53:21;100942.00;;;21.00
18474;BMP180;30265;52.408;13.500;2022-08-19T23:03:44;100956.00;;;21.00
18474;BMP180;30265;52.408;13.500;2022-08-19T23:14:06;100962.00;;;21.00
18474;BMP180;30265;52.408;13.500;2022-08-19T23:24:29;100963.00;;;20.90
18474;BMP180;30265;52.408;13.500;2022-08-19T23:34:51;100959.00;;;20.90
18474;BMP180;30265;52.408;13.500;2022-08-19T23:45:17;100938.00;;;20.80
18474;BMP180;30265;52.408;13.500;2022-08-19T23:55:44;100949.00;;;20.80
